createdAt,value
2024-05-09T00:00:31.660Z,9.70
2024-05-09T00:03:06.015Z,9.71
2024-05-09T00:05:35.977Z,9.72
2024-05-09T00:08:03.794Z,9.75
2024-05-09T00:10:36.331Z,9.76
2024-05-09T00:13:05.581Z,9.78
2024-05-09T00:15:32.398Z,9.81
2024-05-09T00:17:59.149Z,9.81
2024-05-09T00:20:33.680Z,9.82
2024-05-09T00:23:08.303Z,9.82
2024-05-09T00:25:35.628Z,9.82
2024-05-09T00:28:02.481Z,9.83
2024-05-09T00:30:34.380Z,9.87
2024-05-09T00:33:04.398Z,9.86
2024-05-09T00:35:31.869Z,9.88
2024-05-09T00:37:58.713Z,9.86
2024-05-09T00:40:38.971Z,9.87
2024-05-09T00:43:08.280Z,9.87
2024-05-09T00:45:35.155Z,9.88
2024-05-09T00:48:04.729Z,9.84
2024-05-09T00:50:36.460Z,9.89
2024-05-09T00:53:05.162Z,9.88
2024-05-09T00:55:36.217Z,9.85
2024-05-09T00:58:03.665Z,9.83
2024-05-09T01:00:35.913Z,9.79
2024-05-09T01:03:06.679Z,9.77
2024-05-09T01:05:33.667Z,9.75
2024-05-09T01:08:00.627Z,9.72
2024-05-09T01:10:33.766Z,9.71
2024-05-09T01:13:06.053Z,9.71
2024-05-09T01:15:33.813Z,9.66
2024-05-09T01:18:01.726Z,9.67
2024-05-09T01:20:39.134Z,9.64
2024-05-09T01:23:12.764Z,9.63
2024-05-09T01:25:40.850Z,9.63
2024-05-09T01:28:07.778Z,9.62
2024-05-09T01:30:36.950Z,9.62
2024-05-09T01:33:06.835Z,9.62
2024-05-09T01:35:35.403Z,9.62
2024-05-09T01:38:02.358Z,9.65
2024-05-09T01:40:37.541Z,9.61
2024-05-09T01:43:06.894Z,9.60
2024-05-09T01:45:33.911Z,9.58
2024-05-09T01:48:01.142Z,9.58
2024-05-09T01:50:37.697Z,9.59
2024-05-09T01:53:08.338Z,9.55
2024-05-09T01:55:37.903Z,9.54
2024-05-09T01:58:05.003Z,9.54
2024-05-09T02:00:38.807Z,9.53
2024-05-09T02:03:12.429Z,9.51
2024-05-09T02:05:42.033Z,9.52
2024-05-09T02:08:12.890Z,9.52
2024-05-09T02:10:42.627Z,9.52
2024-05-09T02:13:09.548Z,9.52
2024-05-09T02:15:36.421Z,9.52
2024-05-09T02:18:03.542Z,9.48
2024-05-09T02:20:35.988Z,9.49
2024-05-09T02:23:04.867Z,9.47
2024-05-09T02:25:32.289Z,9.46
2024-05-09T02:28:02.068Z,9.46
2024-05-09T02:30:38.422Z,9.46
2024-05-09T02:33:09.494Z,9.46
2024-05-09T02:35:37.821Z,9.45
2024-05-09T02:38:04.970Z,9.48
2024-05-09T02:40:37.031Z,9.49
2024-05-09T02:43:10.549Z,9.48
2024-05-09T02:45:38.291Z,9.51
2024-05-09T02:48:06.491Z,9.53
2024-05-09T02:50:38.405Z,9.56
2024-05-09T02:53:06.844Z,9.59
2024-05-09T02:55:34.413Z,9.61
2024-05-09T02:58:01.200Z,9.59
2024-05-09T03:00:38.200Z,9.60
2024-05-09T03:03:09.594Z,9.62
2024-05-09T03:05:38.029Z,9.61
2024-05-09T03:08:08.488Z,9.59
2024-05-09T03:10:37.523Z,9.61
2024-05-09T03:13:06.704Z,9.59
2024-05-09T03:15:36.087Z,9.58
2024-05-09T03:18:03.361Z,9.59
2024-05-09T03:20:35.486Z,9.60
2024-05-09T03:23:04.073Z,9.61
2024-05-09T03:25:31.057Z,9.60
2024-05-09T03:27:57.834Z,9.61
2024-05-09T03:30:31.186Z,9.62
2024-05-09T03:33:11.010Z,9.58
2024-05-09T03:35:38.022Z,9.58
2024-05-09T03:38:05.155Z,9.63
2024-05-09T03:40:31.914Z,9.64
2024-05-09T03:42:58.698Z,9.64
2024-05-09T03:45:25.555Z,9.66
2024-05-09T03:47:52.880Z,9.63
2024-05-09T03:50:29.835Z,9.64
2024-05-09T03:53:01.071Z,9.63
2024-05-09T03:55:28.368Z,9.61
2024-05-09T03:57:55.264Z,9.59
2024-05-09T04:00:31.039Z,9.60
2024-05-09T04:03:06.212Z,9.60
2024-05-09T04:05:37.749Z,9.63
2024-05-09T04:08:05.460Z,9.64
2024-05-09T04:10:34.249Z,9.63
2024-05-09T04:13:02.175Z,9.65
2024-05-09T04:15:29.129Z,9.63
2024-05-09T04:17:56.395Z,9.72
2024-05-09T04:20:34.022Z,9.74
2024-05-09T04:23:11.910Z,9.76
2024-05-09T04:25:41.698Z,9.81
2024-05-09T04:28:08.489Z,9.82
2024-05-09T04:30:39.224Z,9.82
2024-05-09T04:33:10.568Z,9.87
2024-05-09T04:35:39.427Z,9.92
2024-05-09T04:38:09.357Z,9.95
2024-05-09T04:40:37.497Z,10.00
2024-05-09T04:43:05.688Z,10.06
2024-05-09T04:45:33.064Z,10.05
2024-05-09T04:48:00.383Z,10.13
2024-05-09T04:50:36.078Z,10.15
2024-05-09T04:53:10.341Z,10.23
2024-05-09T04:55:38.587Z,10.25
2024-05-09T04:58:07.991Z,10.25
2024-05-09T05:00:37.410Z,10.35
2024-05-09T05:03:07.605Z,10.39
2024-05-09T05:05:41.456Z,10.54
2024-05-09T05:08:14.266Z,10.60
2024-05-09T05:10:41.834Z,10.64
2024-05-09T05:13:08.863Z,10.68
2024-05-09T05:15:35.777Z,10.72
2024-05-09T05:18:02.747Z,10.83
2024-05-09T05:20:33.585Z,10.94
2024-05-09T05:23:01.280Z,11.03
2024-05-09T05:25:30.795Z,10.99
2024-05-09T05:27:57.566Z,11.13
2024-05-09T05:30:29.110Z,11.29
2024-05-09T05:33:01.289Z,11.38
2024-05-09T05:35:28.289Z,11.46
2024-05-09T05:37:55.311Z,11.48
2024-05-09T05:40:28.653Z,11.56
2024-05-09T05:43:05.429Z,11.65
2024-05-09T05:45:32.197Z,11.84
2024-05-09T05:47:59.378Z,11.96
2024-05-09T05:50:32.565Z,11.97
2024-05-09T05:53:03.271Z,12.12
2024-05-09T05:55:30.151Z,12.30
2024-05-09T05:57:56.972Z,12.45
2024-05-09T06:00:34.348Z,12.40
2024-05-09T06:03:05.418Z,12.44
2024-05-09T06:05:33.022Z,12.56
2024-05-09T06:08:00.252Z,12.59
2024-05-09T06:10:37.003Z,12.47
2024-05-09T06:13:06.686Z,12.58
2024-05-09T06:15:36.241Z,12.67
2024-05-09T06:18:05.771Z,13.03
2024-05-09T06:20:36.492Z,13.06
2024-05-09T06:23:07.820Z,13.20
2024-05-09T06:25:35.756Z,13.42
2024-05-09T06:28:06.720Z,13.60
2024-05-09T06:30:39.785Z,13.57
2024-05-09T06:33:11.826Z,13.84
2024-05-09T06:35:40.831Z,14.09
2024-05-09T06:38:08.274Z,14.47
2024-05-09T06:40:38.446Z,14.30
2024-05-09T06:43:10.958Z,14.31
2024-05-09T06:45:49.003Z,14.37
2024-05-09T06:48:18.085Z,14.43
2024-05-09T06:50:45.457Z,14.78
2024-05-09T06:53:14.524Z,14.46
2024-05-09T06:55:45.038Z,14.51
2024-05-09T06:58:12.025Z,14.44
2024-05-09T07:00:42.357Z,14.52
2024-05-09T07:03:10.787Z,14.66
2024-05-09T07:05:38.532Z,14.56
2024-05-09T07:08:06.902Z,14.71
2024-05-09T07:10:36.997Z,14.66
2024-05-09T07:13:08.198Z,14.85
2024-05-09T07:15:34.976Z,14.75
2024-05-09T07:18:08.446Z,14.74
2024-05-09T07:20:35.438Z,14.90
2024-05-09T07:23:02.387Z,14.89
2024-05-09T07:25:29.985Z,14.94
2024-05-09T07:27:59.048Z,14.59
2024-05-09T07:30:31.081Z,14.77
2024-05-09T07:33:01.631Z,14.74
2024-05-09T07:35:32.181Z,14.67
2024-05-09T07:38:00.070Z,14.80
2024-05-09T07:40:34.611Z,14.92
2024-05-09T07:43:09.601Z,14.83
2024-05-09T07:45:48.361Z,14.72
2024-05-09T07:52:39.246Z,14.98
2024-05-09T07:53:48.011Z,15.05
2024-05-09T07:56:19.709Z,15.00
2024-05-09T07:58:50.005Z,15.27
2024-05-09T08:01:17.145Z,15.53
2024-05-09T08:03:45.293Z,15.71
2024-05-09T08:06:15.105Z,15.77
2024-05-09T08:08:42.075Z,15.94
2024-05-09T08:11:08.889Z,16.09
2024-05-09T08:13:35.774Z,16.47
2024-05-09T08:16:02.711Z,16.22
2024-05-09T08:18:29.699Z,16.11
2024-05-09T08:20:58.642Z,16.27
2024-05-09T08:23:28.342Z,16.54
2024-05-09T08:25:55.237Z,17.22
2024-05-09T08:28:22.190Z,17.09
2024-05-09T08:31:09.494Z,17.32
2024-05-09T08:33:37.086Z,17.59
2024-05-09T08:36:07.046Z,17.67
2024-05-09T08:38:36.376Z,18.02
2024-05-09T08:41:04.455Z,18.36
2024-05-09T08:43:31.357Z,18.47
2024-05-09T08:45:59.395Z,18.39
2024-05-09T08:48:26.827Z,18.61
2024-05-09T08:50:53.925Z,18.14
2024-05-09T08:53:21.118Z,18.16
2024-05-09T08:55:51.522Z,18.28
2024-05-09T08:58:19.068Z,18.22
2024-05-09T09:00:46.830Z,17.85
2024-05-09T09:03:17.537Z,18.85
2024-05-09T09:05:53.556Z,19.34
2024-05-09T09:08:21.536Z,18.65
2024-05-09T09:10:57.701Z,18.36
2024-05-09T09:13:27.180Z,18.65
2024-05-09T09:15:54.449Z,19.42
2024-05-09T09:18:25.112Z,19.61
2024-05-09T09:20:54.944Z,19.75
2024-05-09T09:23:22.375Z,19.04
2024-05-09T09:25:52.142Z,18.93
2024-05-09T09:28:23.168Z,19.05
2024-05-09T09:30:50.329Z,18.87
2024-05-09T09:33:18.212Z,19.59
2024-05-09T09:35:58.634Z,19.20
2024-05-09T09:39:11.846Z,18.98
2024-05-09T09:45:13.410Z,18.68
2024-05-09T09:54:39.725Z,19.90
2024-05-09T09:57:08.355Z,19.03
2024-05-09T09:59:39.176Z,19.53
2024-05-09T10:05:47.075Z,20.07
2024-05-09T10:08:16.682Z,20.15
2024-05-09T10:10:46.859Z,20.63
2024-05-09T10:13:14.110Z,20.10
2024-05-09T10:15:46.660Z,19.24
2024-05-09T10:18:14.216Z,19.65
2024-05-09T10:20:45.671Z,20.01
2024-05-09T10:23:26.384Z,20.59
2024-05-09T10:25:57.888Z,20.71
2024-05-09T10:28:27.887Z,20.72
2024-05-09T10:31:08.679Z,20.58
2024-05-09T10:33:37.330Z,20.07
2024-05-09T10:43:22.415Z,19.55
2024-05-09T10:45:49.865Z,19.80
2024-05-09T10:48:18.996Z,20.02
2024-05-09T10:50:49.142Z,20.06
2024-05-09T10:53:20.331Z,20.41
2024-05-09T10:55:56.791Z,20.59
2024-05-09T10:58:23.829Z,20.86
2024-05-09T11:01:04.339Z,20.58
2024-05-09T11:03:56.701Z,21.21
2024-05-09T11:06:35.190Z,20.60
2024-05-09T11:09:05.133Z,21.95
2024-05-09T11:11:32.764Z,21.55
2024-05-09T11:13:59.642Z,21.27
2024-05-09T11:16:31.879Z,22.17
2024-05-09T11:19:02.210Z,23.12
2024-05-09T11:21:29.517Z,21.77
2024-05-09T11:23:59.284Z,21.19
2024-05-09T11:26:33.235Z,20.64
2024-05-09T11:29:00.419Z,21.35
2024-05-09T11:31:30.658Z,21.94
2024-05-09T11:33:57.731Z,23.07
2024-05-09T11:36:26.705Z,22.76
2024-05-09T11:38:53.676Z,23.40
2024-05-09T11:41:20.619Z,22.97
2024-05-09T11:43:56.034Z,22.20
2024-05-09T11:46:32.709Z,21.25
2024-05-09T11:49:15.342Z,21.33
2024-05-09T11:59:20.748Z,20.83
2024-05-09T12:01:59.357Z,21.14
2024-05-09T12:04:31.120Z,21.51
2024-05-09T12:06:58.527Z,21.39
2024-05-09T12:09:25.508Z,20.99
2024-05-09T12:11:52.514Z,20.65
2024-05-09T12:14:21.947Z,20.24
2024-05-09T12:16:48.893Z,20.43
2024-05-09T12:19:18.880Z,20.52
2024-05-09T12:21:45.906Z,20.41
2024-05-09T12:24:15.196Z,20.32
2024-05-09T12:26:43.886Z,19.84
2024-05-09T12:29:11.144Z,19.79
2024-05-09T12:31:40.675Z,19.98
2024-05-09T12:34:07.659Z,20.62
2024-05-09T12:36:34.775Z,21.02
2024-05-09T12:39:03.475Z,21.46
2024-05-09T12:41:32.908Z,23.19
2024-05-09T12:43:59.867Z,23.09
2024-05-09T12:46:27.299Z,23.52
2024-05-09T12:48:58.189Z,22.04
2024-05-09T12:51:25.384Z,21.63
2024-05-09T12:53:52.215Z,21.45
2024-05-09T12:56:19.205Z,21.26
2024-05-09T12:58:46.303Z,21.52
2024-05-09T13:01:13.239Z,20.95
2024-05-09T13:03:40.311Z,20.85
2024-05-09T13:06:10.116Z,21.30
2024-05-09T13:08:36.986Z,21.28
2024-05-09T13:11:03.853Z,20.72
2024-05-09T13:13:30.673Z,20.59
2024-05-09T13:15:57.526Z,20.32
2024-05-09T13:18:24.548Z,20.41
2024-05-09T13:20:51.391Z,20.72
2024-05-09T13:23:20.755Z,21.29
2024-05-09T13:25:47.522Z,20.97
2024-05-09T13:28:14.554Z,21.05
2024-05-09T13:30:42.359Z,21.79
2024-05-09T13:33:11.021Z,21.26
2024-05-09T13:35:38.747Z,21.46
2024-05-09T13:38:05.983Z,21.15
2024-05-09T13:40:36.520Z,20.83
2024-05-09T13:43:04.081Z,21.52
2024-05-09T13:45:31.177Z,23.70
2024-05-09T13:47:58.288Z,24.36
2024-05-09T13:50:33.201Z,23.60
2024-05-09T13:53:02.931Z,22.90
2024-05-09T13:55:29.762Z,22.27
2024-05-09T13:57:59.398Z,21.72
2024-05-09T14:00:38.431Z,20.86
2024-05-09T14:03:12.061Z,21.17
2024-05-09T14:05:39.270Z,21.04
2024-05-09T14:08:09.596Z,21.34
2024-05-09T14:10:36.634Z,21.90
2024-05-09T14:13:06.073Z,23.82
2024-05-09T14:15:35.319Z,23.82
2024-05-09T14:18:02.551Z,24.68
2024-05-09T14:20:31.998Z,24.60
2024-05-09T14:22:59.769Z,23.91
2024-05-09T14:25:29.210Z,23.57
2024-05-09T14:27:59.651Z,23.03
2024-05-09T14:30:36.003Z,22.52
2024-05-09T14:33:09.122Z,22.69
2024-05-09T14:35:36.874Z,22.71
2024-05-09T14:38:04.159Z,23.44
2024-05-09T14:40:40.395Z,23.02
2024-05-09T14:43:10.773Z,23.07
2024-05-09T14:45:40.906Z,22.45
2024-05-09T14:48:08.855Z,22.13
2024-05-09T14:50:41.103Z,21.63
2024-05-09T14:54:11.235Z,20.81
2024-05-09T14:56:41.863Z,20.51
2024-05-09T14:59:08.596Z,20.82
2024-05-09T15:01:37.986Z,20.65
2024-05-09T15:04:05.208Z,20.71
2024-05-09T15:06:32.424Z,20.57
2024-05-09T15:08:59.686Z,20.43
2024-05-09T15:11:26.722Z,20.29
2024-05-09T15:13:53.976Z,20.36
2024-05-09T15:16:21.034Z,20.70
2024-05-09T15:18:50.970Z,20.97
2024-05-09T15:21:18.007Z,23.58
2024-05-09T15:23:44.906Z,24.99
2024-05-09T15:26:11.896Z,23.55
2024-05-09T15:28:40.408Z,22.64
2024-05-09T15:31:07.165Z,22.10
2024-05-09T15:33:34.050Z,21.28
2024-05-09T15:36:03.856Z,20.80
2024-05-09T15:38:30.762Z,20.08
2024-05-09T15:40:57.510Z,20.31
2024-05-09T15:43:27.143Z,20.19
2024-05-09T15:45:55.190Z,20.46
2024-05-09T15:48:25.221Z,22.55
2024-05-09T15:50:52.127Z,26.26
2024-05-09T15:53:21.742Z,28.84
2024-05-09T15:55:48.598Z,27.57
2024-05-09T15:58:15.551Z,26.21
2024-05-09T16:15:40.872Z,19.61
2024-05-09T16:18:14.721Z,19.37
2024-05-09T16:20:57.614Z,19.12
2024-05-09T16:23:33.102Z,20.76
2024-05-09T16:25:59.962Z,23.68
2024-05-09T16:28:27.238Z,26.33
2024-05-09T16:30:54.210Z,28.39
2024-05-09T16:33:24.015Z,29.48
2024-05-09T16:35:51.035Z,29.64
2024-05-09T16:38:18.124Z,29.08
2024-05-09T16:40:44.992Z,27.16
2024-05-09T16:43:13.292Z,29.00
2024-05-09T16:45:41.957Z,31.21
2024-05-09T16:48:09.440Z,29.77
2024-05-09T16:50:39.169Z,30.75
2024-05-09T16:53:06.793Z,29.20
2024-05-09T16:55:34.394Z,26.37
2024-05-09T16:58:01.991Z,24.66
2024-05-09T17:00:40.778Z,23.17
2024-05-09T17:03:11.600Z,23.26
2024-05-09T17:05:42.972Z,23.62
2024-05-09T17:08:10.175Z,24.27
2024-05-09T17:10:37.818Z,23.20
2024-05-09T17:13:07.165Z,22.12
2024-05-09T17:15:35.500Z,21.64
2024-05-09T17:18:03.992Z,20.99
2024-05-09T17:20:36.322Z,20.35
2024-05-09T17:23:07.070Z,19.80
2024-05-09T17:25:34.347Z,19.48
2024-05-09T17:28:02.422Z,19.24
2024-05-09T17:30:35.072Z,18.77
2024-05-09T17:36:34.667Z,18.98
2024-05-09T17:39:04.492Z,20.86
2024-05-09T17:41:31.547Z,21.95
2024-05-09T17:43:58.625Z,22.53
2024-05-09T17:46:35.174Z,22.26
2024-05-09T17:49:05.213Z,21.52
2024-05-09T17:51:34.532Z,21.53
2024-05-09T17:54:04.089Z,22.05
2024-05-09T17:56:33.793Z,21.87
2024-05-09T17:59:00.779Z,21.35
2024-05-09T18:01:27.781Z,20.42
2024-05-09T18:03:54.939Z,19.16
2024-05-09T18:06:23.882Z,18.29
2024-05-09T18:08:50.761Z,17.51
2024-05-09T18:11:20.643Z,16.82
2024-05-09T18:13:47.786Z,16.29
2024-05-09T18:16:15.048Z,15.95
2024-05-09T18:18:42.101Z,15.52
2024-05-09T18:21:09.027Z,15.22
2024-05-09T18:23:36.328Z,14.84
2024-05-09T18:26:03.395Z,14.44
2024-05-09T18:28:35.642Z,14.21
2024-05-09T18:31:02.533Z,14.12
2024-05-09T18:33:29.767Z,14.06
2024-05-09T18:35:56.908Z,13.66
2024-05-09T18:38:24.002Z,13.55
2024-05-09T18:40:51.067Z,13.27
2024-05-09T18:43:26.360Z,13.09
2024-05-09T18:46:01.013Z,12.87
2024-05-09T18:48:28.098Z,12.65
2024-05-09T18:50:55.229Z,12.47
2024-05-09T18:53:22.308Z,12.31
2024-05-09T18:55:49.227Z,12.15
2024-05-09T18:58:16.674Z,12.01
2024-05-09T19:00:46.025Z,11.82
2024-05-09T19:03:19.151Z,11.68
2024-05-09T19:05:47.184Z,11.59
2024-05-09T19:08:14.629Z,11.51
2024-05-09T19:10:41.923Z,11.45
2024-05-09T19:13:12.179Z,11.33
2024-05-09T19:15:41.636Z,11.19
2024-05-09T19:18:10.088Z,11.05
2024-05-09T19:20:39.972Z,10.98
2024-05-09T19:23:07.501Z,10.91
2024-05-09T19:25:35.672Z,10.76
2024-05-09T19:28:03.701Z,10.70
2024-05-09T19:30:38.468Z,10.61
2024-05-09T19:33:09.835Z,10.45
2024-05-09T19:35:40.286Z,10.41
2024-05-09T19:38:10.314Z,10.27
2024-05-09T19:40:37.457Z,10.21
2024-05-09T19:43:05.912Z,10.15
2024-05-09T19:45:34.427Z,10.04
2024-05-09T19:48:02.558Z,9.95
2024-05-09T19:50:37.366Z,9.91
2024-05-09T19:53:12.415Z,9.79
2024-05-09T19:55:39.657Z,9.74
2024-05-09T19:58:07.909Z,9.70
2024-05-09T20:00:38.151Z,9.54
2024-05-09T20:03:08.249Z,9.47
2024-05-09T20:05:37.122Z,9.34
2024-05-09T20:08:05.153Z,9.31
2024-05-09T20:10:36.706Z,9.24
2024-05-09T20:13:06.669Z,9.16
2024-05-09T20:15:35.869Z,9.06
2024-05-09T20:18:03.800Z,9.02
2024-05-09T20:20:37.577Z,8.92
2024-05-09T20:23:08.488Z,8.82
2024-05-09T20:25:37.907Z,8.78
2024-05-09T20:28:11.478Z,8.73
2024-05-09T20:30:38.524Z,8.62
2024-05-09T20:33:07.278Z,8.59
2024-05-09T20:35:35.565Z,8.53
2024-05-09T20:38:03.503Z,8.48
2024-05-09T20:40:34.927Z,8.44
2024-05-09T20:43:08.349Z,8.29
2024-05-09T20:45:35.646Z,8.31
2024-05-09T20:48:03.071Z,8.28
2024-05-09T20:50:40.670Z,8.23
2024-05-09T20:53:15.404Z,8.19
2024-05-09T20:55:43.625Z,8.11
2024-05-09T20:58:14.205Z,8.00
2024-05-09T21:00:44.166Z,7.93
2024-05-09T21:03:14.030Z,7.77
2024-05-09T21:05:42.151Z,7.81
2024-05-09T21:08:09.191Z,7.75
2024-05-09T21:10:36.847Z,7.64
2024-05-09T21:13:04.879Z,7.60
2024-05-09T21:15:35.347Z,7.59
2024-05-09T21:18:04.681Z,7.56
2024-05-09T21:20:33.210Z,7.47
2024-05-09T21:23:00.630Z,7.37
2024-05-09T21:25:27.593Z,7.33
2024-05-09T21:27:54.762Z,7.26
2024-05-09T21:30:31.963Z,7.26
2024-05-09T21:33:12.268Z,7.20
2024-05-09T21:35:41.139Z,7.18
2024-05-09T21:38:10.835Z,7.10
2024-05-09T21:40:38.319Z,7.07
2024-05-09T21:43:07.267Z,6.99
2024-05-09T21:45:35.204Z,6.91
2024-05-09T21:48:03.602Z,6.87
2024-05-09T21:50:39.368Z,6.92
2024-05-09T21:53:12.489Z,6.90
2024-05-09T21:55:39.844Z,6.83
2024-05-09T21:58:06.697Z,6.80
2024-05-09T22:00:37.573Z,6.73
2024-05-09T22:03:06.423Z,6.69
2024-05-09T22:05:36.331Z,6.68
2024-05-09T22:08:03.406Z,6.63
2024-05-09T22:10:35.040Z,6.57
2024-05-09T22:13:04.031Z,6.47
2024-05-09T22:15:32.367Z,6.44
2024-05-09T22:17:59.379Z,6.43
2024-05-09T22:20:34.465Z,6.36
2024-05-09T22:23:08.481Z,6.33
2024-05-09T22:25:38.161Z,6.22
2024-05-09T22:28:08.030Z,6.24
2024-05-09T22:30:39.748Z,6.32
2024-05-09T22:33:08.150Z,6.28
2024-05-09T22:35:38.036Z,6.17
2024-05-09T22:38:07.852Z,6.08
2024-05-09T22:43:05.269Z,5.93
2024-05-09T22:45:34.703Z,5.90
2024-05-09T22:48:01.897Z,5.86
2024-05-09T22:50:33.137Z,5.82
2024-05-09T22:53:00.475Z,5.74
2024-05-09T22:55:29.959Z,5.67
2024-05-09T22:57:56.880Z,5.68
2024-05-09T23:02:53.435Z,5.67
2024-05-09T23:05:20.596Z,5.77
2024-05-09T23:07:47.531Z,5.73
2024-05-09T23:10:21.220Z,5.64
2024-05-09T23:12:57.140Z,5.55
2024-05-09T23:15:23.860Z,5.49
2024-05-09T23:17:50.752Z,5.42
2024-05-09T23:20:25.932Z,5.39
2024-05-09T23:22:57.046Z,5.40
2024-05-09T23:25:23.868Z,5.38
2024-05-09T23:27:50.813Z,5.35
2024-05-09T23:30:29.222Z,5.39
2024-05-09T23:33:03.981Z,5.32
2024-05-09T23:35:30.926Z,5.26
2024-05-09T23:37:57.770Z,5.20
2024-05-09T23:40:34.945Z,5.14
2024-05-09T23:43:09.298Z,5.11
2024-05-09T23:45:39.340Z,5.01
2024-05-09T23:48:07.066Z,4.99
2024-05-09T23:50:37.283Z,4.98
2024-05-09T23:53:07.219Z,4.93
2024-05-09T23:55:35.277Z,4.83
2024-05-09T23:58:02.162Z,4.87
